DAL8914 KMSN-KMSP
Flight info
| Callsign | DAL8914 |
|---|---|
| Flight time | 0h 50m |
| Altitude | 28000 |
| Route | OOPEE BLUEM5 |
| Aircraft | B739/M-SDE2E3FGHIRWXY/LB1 |
Departure
| Time | 2026-04-26 04:35 |
|---|---|
| Airport | Dane County Regional Truax Field (KMSN) |
Arrival
| Time | 2026-04-26 05:25 |
|---|---|
| Airport | Minneapolis–Saint Paul International Airport / Wold–Chamberlain Field (KMSP) |
| Time | Latitude | Longitude | Altitude | Speed | Heading |
|---|---|---|---|---|---|
| 2026-04-26 04:24 | 43.13808 | -89.34528 | 866 ft | 1 kts | 215° |
| 2026-04-26 04:25 | 43.13809 | -89.34528 | 854 ft | 1 kts | 215° |
| 2026-04-26 04:25 | 43.13822 | -89.34516 | 849 ft | 3 kts | 213° |
| 2026-04-26 04:25 | 43.13839 | -89.34500 | 851 ft | 3 kts | 218° |
| 2026-04-26 04:26 | 43.13852 | -89.34483 | 856 ft | 3 kts | 250° |
| 2026-04-26 04:26 | 43.13854 | -89.34461 | 849 ft | 3 kts | 269° |
| 2026-04-26 04:26 | 43.13854 | -89.34434 | 849 ft | 3 kts | 269° |
| 2026-04-26 04:26 | 43.13854 | -89.34406 | 849 ft | 3 kts | 277° |
| 2026-04-26 04:27 | 43.13849 | -89.34382 | 866 ft | 3 kts | 306° |
| 2026-04-26 04:27 | 43.13841 | -89.34371 | 866 ft | 2 kts | 358° |
| 2026-04-26 04:27 | 43.13829 | -89.34371 | 866 ft | 3 kts | 1° |
| 2026-04-26 04:27 | 43.13809 | -89.34372 | 849 ft | 3 kts | 3° |
| 2026-04-26 04:28 | 43.13788 | -89.34374 | 857 ft | 3 kts | 3° |
| 2026-04-26 04:28 | 43.13775 | -89.34375 | 855 ft | 0 kts | 2° |
| 2026-04-26 04:30 | 43.13779 | -89.34375 | 854 ft | 3 kts | 0° |
| 2026-04-26 04:30 | 43.13824 | -89.34375 | 849 ft | 8 kts | 7° |
| 2026-04-26 04:30 | 43.13858 | -89.34322 | 867 ft | 7 kts | 45° |
| 2026-04-26 04:31 | 43.13917 | -89.34299 | 868 ft | 12 kts | 4° |
| 2026-04-26 04:31 | 43.14017 | -89.34296 | 870 ft | 15 kts | 359° |
| 2026-04-26 04:31 | 43.14114 | -89.34334 | 871 ft | 14 kts | 340° |
| 2026-04-26 04:31 | 43.14209 | -89.34356 | 872 ft | 14 kts | 358° |
| 2026-04-26 04:32 | 43.14303 | -89.34354 | 872 ft | 14 kts | 1° |
| 2026-04-26 04:32 | 43.14402 | -89.34349 | 870 ft | 15 kts | 2° |
| 2026-04-26 04:32 | 43.14523 | -89.34342 | 869 ft | 18 kts | 2° |
| 2026-04-26 04:32 | 43.14644 | -89.34332 | 867 ft | 17 kts | 9° |
| 2026-04-26 04:33 | 43.14758 | -89.34297 | 862 ft | 17 kts | 13° |
| 2026-04-26 04:33 | 43.14864 | -89.34265 | 856 ft | 14 kts | 15° |
| 2026-04-26 04:33 | 43.14905 | -89.34163 | 860 ft | 11 kts | 90° |
| 2026-04-26 04:33 | 43.14875 | -89.34106 | 861 ft | 4 kts | 172° |
| 2026-04-26 04:34 | 43.14843 | -89.34105 | 867 ft | 6 kts | 180° |
| 2026-04-26 04:34 | 43.14660 | -89.34113 | 867 ft | 62 kts | 181° |
| 2026-04-26 04:34 | 43.13981 | -89.34144 | 869 ft | 131 kts | 182° |
| 2026-04-26 04:34 | 43.12891 | -89.34190 | 1001 ft | 170 kts | 181° |
| 2026-04-26 04:35 | 43.11711 | -89.34271 | 1809 ft | 173 kts | 181° |
| 2026-04-26 04:35 | 43.10473 | -89.34405 | 2451 ft | 184 kts | 182° |
| 2026-04-26 04:35 | 43.09149 | -89.34586 | 2915 ft | 201 kts | 184° |
| 2026-04-26 04:35 | 43.07846 | -89.35344 | 3485 ft | 211 kts | 220° |
| 2026-04-26 04:36 | 43.07022 | -89.36996 | 4119 ft | 215 kts | 252° |
| 2026-04-26 04:36 | 43.06801 | -89.39077 | 4525 ft | 230 kts | 268° |
| 2026-04-26 04:36 | 43.06727 | -89.41329 | 4956 ft | 243 kts | 268° |
| 2026-04-26 04:36 | 43.06666 | -89.43652 | 5475 ft | 255 kts | 269° |
| 2026-04-26 04:37 | 43.06689 | -89.46173 | 6019 ft | 267 kts | 277° |
| 2026-04-26 04:37 | 43.06987 | -89.48634 | 7023 ft | 259 kts | 282° |
| 2026-04-26 04:37 | 43.07349 | -89.51069 | 7778 ft | 266 kts | 283° |
| 2026-04-26 04:37 | 43.07734 | -89.53572 | 8500 ft | 269 kts | 282° |
| 2026-04-26 04:38 | 43.08095 | -89.56066 | 9451 ft | 266 kts | 282° |
| 2026-04-26 04:38 | 43.08453 | -89.58541 | 10351 ft | 263 kts | 282° |
| 2026-04-26 04:38 | 43.08789 | -89.61008 | 11109 ft | 265 kts | 281° |
| 2026-04-26 04:38 | 43.09119 | -89.63545 | 11551 ft | 281 kts | 280° |
| 2026-04-26 04:39 | 43.09471 | -89.66292 | 11725 ft | 304 kts | 280° |
| 2026-04-26 04:39 | 43.09848 | -89.69249 | 11895 ft | 327 kts | 280° |
| 2026-04-26 04:39 | 43.10241 | -89.72353 | 12235 ft | 340 kts | 279° |
| 2026-04-26 04:39 | 43.10649 | -89.75570 | 12869 ft | 345 kts | 279° |
| 2026-04-26 04:40 | 43.11060 | -89.78825 | 13605 ft | 347 kts | 279° |
| 2026-04-26 04:40 | 43.11471 | -89.82088 | 14288 ft | 350 kts | 279° |
| 2026-04-26 04:40 | 43.11887 | -89.85397 | 14881 ft | 354 kts | 278° |
| 2026-04-26 04:40 | 43.12306 | -89.88736 | 15484 ft | 358 kts | 278° |
| 2026-04-26 04:41 | 43.12729 | -89.92111 | 16092 ft | 361 kts | 278° |
| 2026-04-26 04:41 | 43.13154 | -89.95520 | 16693 ft | 365 kts | 278° |
| 2026-04-26 04:41 | 43.13584 | -89.98969 | 17274 ft | 369 kts | 278° |
| 2026-04-26 04:41 | 43.14015 | -90.02442 | 17867 ft | 372 kts | 278° |
| 2026-04-26 04:42 | 43.14445 | -90.05909 | 18432 ft | 376 kts | 278° |
| 2026-04-26 04:42 | 43.14883 | -90.09453 | 18945 ft | 379 kts | 278° |
| 2026-04-26 04:42 | 43.15325 | -90.13030 | 19482 ft | 381 kts | 278° |
| 2026-04-26 04:42 | 43.15766 | -90.16613 | 20048 ft | 382 kts | 278° |
| 2026-04-26 04:43 | 43.16208 | -90.20217 | 20588 ft | 385 kts | 278° |
| 2026-04-26 04:43 | 43.16651 | -90.23837 | 21118 ft | 387 kts | 278° |
| 2026-04-26 04:43 | 43.17097 | -90.27492 | 21635 ft | 390 kts | 278° |
| 2026-04-26 04:43 | 43.17543 | -90.31165 | 22152 ft | 392 kts | 278° |
| 2026-04-26 04:44 | 43.17987 | -90.34817 | 22673 ft | 394 kts | 278° |
| 2026-04-26 04:44 | 43.18436 | -90.38528 | 23185 ft | 396 kts | 278° |
| 2026-04-26 04:44 | 43.18886 | -90.42264 | 23710 ft | 398 kts | 278° |
| 2026-04-26 04:44 | 43.19336 | -90.45998 | 24293 ft | 395 kts | 278° |
| 2026-04-26 04:45 | 43.19780 | -90.49694 | 24945 ft | 391 kts | 278° |
| 2026-04-26 04:45 | 43.20219 | -90.53358 | 25550 ft | 388 kts | 278° |
| 2026-04-26 04:45 | 43.20655 | -90.57016 | 26101 ft | 387 kts | 277° |
| 2026-04-26 04:45 | 43.21083 | -90.60612 | 26642 ft | 386 kts | 277° |
| 2026-04-26 04:46 | 43.21513 | -90.64234 | 27241 ft | 384 kts | 277° |
| 2026-04-26 04:46 | 43.21939 | -90.67833 | 27823 ft | 382 kts | 277° |
| 2026-04-26 04:46 | 43.22363 | -90.71436 | 28072 ft | 383 kts | 277° |
| 2026-04-26 04:47 | 43.23208 | -90.78625 | 28085 ft | 381 kts | 277° |
| 2026-04-26 04:47 | 43.24045 | -90.85802 | 28090 ft | 381 kts | 277° |
| 2026-04-26 04:48 | 43.25293 | -90.96559 | 28079 ft | 382 kts | 277° |
| 2026-04-26 04:48 | 43.26121 | -91.03753 | 28063 ft | 381 kts | 277° |
| 2026-04-26 04:49 | 43.26944 | -91.10937 | 28059 ft | 381 kts | 277° |
| 2026-04-26 04:49 | 43.27760 | -91.18103 | 28063 ft | 380 kts | 277° |
| 2026-04-26 04:50 | 43.28569 | -91.25249 | 28061 ft | 379 kts | 277° |
| 2026-04-26 04:50 | 43.29373 | -91.32390 | 28055 ft | 378 kts | 277° |
| 2026-04-26 04:51 | 43.30171 | -91.39527 | 28040 ft | 378 kts | 277° |
| 2026-04-26 04:51 | 43.30963 | -91.46645 | 28038 ft | 377 kts | 277° |
| 2026-04-26 04:52 | 43.31750 | -91.53762 | 28038 ft | 376 kts | 277° |
| 2026-04-26 04:52 | 43.32527 | -91.60828 | 28032 ft | 376 kts | 277° |
| 2026-04-26 04:53 | 43.33303 | -91.67927 | 28044 ft | 376 kts | 277° |
| 2026-04-26 04:53 | 43.34075 | -91.75031 | 28043 ft | 376 kts | 276° |
| 2026-04-26 04:54 | 43.34718 | -91.80980 | 28038 ft | 375 kts | 277° |
| 2026-04-26 04:54 | 43.35480 | -91.88066 | 28035 ft | 374 kts | 277° |
| 2026-04-26 04:55 | 43.36232 | -91.95106 | 28043 ft | 374 kts | 276° |
| 2026-04-26 04:55 | 43.36982 | -92.02169 | 28042 ft | 373 kts | 276° |
| 2026-04-26 04:56 | 43.37725 | -92.09215 | 28036 ft | 373 kts | 276° |
| 2026-04-26 04:56 | 43.38465 | -92.16267 | 28045 ft | 372 kts | 276° |
| 2026-04-26 04:57 | 43.39200 | -92.23317 | 28041 ft | 372 kts | 276° |
| 2026-04-26 04:57 | 43.39927 | -92.30330 | 28041 ft | 372 kts | 276° |
| 2026-04-26 04:58 | 43.40654 | -92.37386 | 28039 ft | 372 kts | 276° |
| 2026-04-26 04:58 | 43.41375 | -92.44431 | 28041 ft | 372 kts | 276° |
| 2026-04-26 04:59 | 43.42092 | -92.51480 | 28038 ft | 372 kts | 276° |
| 2026-04-26 04:59 | 43.42804 | -92.58531 | 28031 ft | 372 kts | 276° |
| 2026-04-26 05:00 | 43.43508 | -92.65535 | 28033 ft | 372 kts | 276° |
| 2026-04-26 05:00 | 43.44212 | -92.72582 | 28031 ft | 371 kts | 276° |
| 2026-04-26 05:01 | 43.44911 | -92.79634 | 28030 ft | 371 kts | 275° |
| 2026-04-26 05:01 | 43.45595 | -92.86561 | 28012 ft | 353 kts | 275° |
| 2026-04-26 05:02 | 43.46238 | -92.93107 | 28024 ft | 343 kts | 275° |
| 2026-04-26 05:02 | 43.46871 | -92.99640 | 28032 ft | 343 kts | 275° |
| 2026-04-26 05:03 | 43.47182 | -93.02835 | 28018 ft | 330 kts | 275° |
| 2026-04-26 05:03 | 43.47480 | -93.05906 | 27885 ft | 319 kts | 275° |
| 2026-04-26 05:03 | 43.47770 | -93.08924 | 27402 ft | 318 kts | 275° |
| 2026-04-26 05:03 | 43.48057 | -93.11924 | 26860 ft | 320 kts | 275° |
| 2026-04-26 05:04 | 43.48348 | -93.14966 | 26395 ft | 319 kts | 274° |
| 2026-04-26 05:04 | 43.48637 | -93.17978 | 25909 ft | 314 kts | 274° |
| 2026-04-26 05:04 | 43.48922 | -93.20965 | 25331 ft | 313 kts | 275° |
| 2026-04-26 05:04 | 43.49574 | -93.23807 | 24709 ft | 322 kts | 294° |
| 2026-04-26 05:05 | 43.50972 | -93.26266 | 24134 ft | 334 kts | 313° |
| 2026-04-26 05:05 | 43.52960 | -93.27997 | 23752 ft | 346 kts | 332° |
| 2026-04-26 05:05 | 43.55372 | -93.28730 | 23305 ft | 366 kts | 354° |
| 2026-04-26 05:05 | 43.57960 | -93.28635 | 22880 ft | 375 kts | 358° |
| 2026-04-26 05:06 | 43.60575 | -93.28367 | 22425 ft | 378 kts | 360° |
| 2026-04-26 05:06 | 43.63196 | -93.28051 | 21973 ft | 378 kts | 360° |
| 2026-04-26 05:06 | 43.65815 | -93.27740 | 21469 ft | 377 kts | 359° |
| 2026-04-26 05:06 | 43.68386 | -93.27452 | 21038 ft | 374 kts | 359° |
| 2026-04-26 05:07 | 43.71003 | -93.27176 | 20610 ft | 371 kts | 358° |
| 2026-04-26 05:07 | 43.73535 | -93.26921 | 20206 ft | 368 kts | 358° |
| 2026-04-26 05:07 | 43.76084 | -93.26670 | 19804 ft | 365 kts | 358° |
| 2026-04-26 05:07 | 43.78610 | -93.26425 | 19408 ft | 362 kts | 357° |
| 2026-04-26 05:08 | 43.81119 | -93.26183 | 19014 ft | 360 kts | 357° |
| 2026-04-26 05:08 | 43.83608 | -93.25943 | 18624 ft | 357 kts | 357° |
| 2026-04-26 05:08 | 43.86085 | -93.25704 | 18222 ft | 355 kts | 357° |
| 2026-04-26 05:08 | 43.88544 | -93.25467 | 17789 ft | 353 kts | 357° |
| 2026-04-26 05:09 | 43.90984 | -93.25231 | 17377 ft | 350 kts | 357° |
| 2026-04-26 05:09 | 43.93406 | -93.24996 | 16982 ft | 347 kts | 357° |
| 2026-04-26 05:09 | 43.95772 | -93.24765 | 16601 ft | 344 kts | 357° |
| 2026-04-26 05:09 | 43.98133 | -93.24526 | 16212 ft | 336 kts | 357° |
| 2026-04-26 05:10 | 44.00438 | -93.24278 | 15836 ft | 329 kts | 357° |
| 2026-04-26 05:10 | 44.02708 | -93.24032 | 15487 ft | 326 kts | 357° |
| 2026-04-26 05:10 | 44.04966 | -93.23790 | 15129 ft | 324 kts | 357° |
| 2026-04-26 05:10 | 44.07210 | -93.23549 | 14775 ft | 322 kts | 357° |
| 2026-04-26 05:11 | 44.09440 | -93.23311 | 14411 ft | 320 kts | 357° |
| 2026-04-26 05:11 | 44.11660 | -93.23074 | 14069 ft | 318 kts | 357° |
| 2026-04-26 05:11 | 44.13859 | -93.22838 | 13702 ft | 316 kts | 357° |
| 2026-04-26 05:11 | 44.16049 | -93.22603 | 13309 ft | 314 kts | 357° |
| 2026-04-26 05:12 | 44.18220 | -93.22370 | 12952 ft | 312 kts | 357° |
| 2026-04-26 05:12 | 44.20352 | -93.22165 | 12600 ft | 309 kts | 357° |
| 2026-04-26 05:12 | 44.22491 | -93.21974 | 12258 ft | 307 kts | 357° |
| 2026-04-26 05:12 | 44.24618 | -93.21784 | 11945 ft | 304 kts | 357° |
| 2026-04-26 05:13 | 44.26728 | -93.21593 | 11611 ft | 303 kts | 357° |
| 2026-04-26 05:13 | 44.28821 | -93.21404 | 11283 ft | 301 kts | 357° |
| 2026-04-26 05:13 | 44.30914 | -93.21235 | 10943 ft | 300 kts | 357° |
| 2026-04-26 05:13 | 44.32968 | -93.21077 | 10616 ft | 298 kts | 357° |
| 2026-04-26 05:14 | 44.35038 | -93.20916 | 10290 ft | 297 kts | 357° |
| 2026-04-26 05:14 | 44.37101 | -93.20753 | 9964 ft | 296 kts | 358° |
| 2026-04-26 05:14 | 44.39118 | -93.20338 | 9801 ft | 290 kts | 7° |
| 2026-04-26 05:14 | 44.41107 | -93.19683 | 9313 ft | 293 kts | 9° |
| 2026-04-26 05:15 | 44.43069 | -93.18896 | 8966 ft | 295 kts | 21° |
| 2026-04-26 05:15 | 44.44786 | -93.17354 | 8778 ft | 291 kts | 33° |
| 2026-04-26 05:15 | 44.46409 | -93.15704 | 8572 ft | 285 kts | 33° |
| 2026-04-26 05:15 | 44.48003 | -93.14086 | 8379 ft | 281 kts | 33° |
| 2026-04-26 05:16 | 44.49585 | -93.12490 | 8202 ft | 279 kts | 33° |
| 2026-04-26 05:16 | 44.51154 | -93.10912 | 8024 ft | 278 kts | 33° |
| 2026-04-26 05:16 | 44.52711 | -93.09352 | 7859 ft | 279 kts | 33° |
| 2026-04-26 05:16 | 44.54300 | -93.07761 | 7678 ft | 281 kts | 34° |
| 2026-04-26 05:17 | 44.55894 | -93.06165 | 7503 ft | 280 kts | 34° |
| 2026-04-26 05:17 | 44.57469 | -93.04589 | 7317 ft | 276 kts | 34° |
| 2026-04-26 05:17 | 44.59026 | -93.03029 | 7140 ft | 273 kts | 34° |
| 2026-04-26 05:17 | 44.60558 | -93.01495 | 7004 ft | 264 kts | 35° |
| 2026-04-26 05:18 | 44.62021 | -93.00018 | 6964 ft | 252 kts | 35° |
| 2026-04-26 05:18 | 44.63407 | -92.98588 | 6885 ft | 246 kts | 37° |
| 2026-04-26 05:18 | 44.64757 | -92.97089 | 6678 ft | 248 kts | 38° |
| 2026-04-26 05:18 | 44.66081 | -92.95601 | 6502 ft | 246 kts | 39° |
| 2026-04-26 05:19 | 44.67409 | -92.94112 | 6310 ft | 243 kts | 39° |
| 2026-04-26 05:19 | 44.68784 | -92.92705 | 6085 ft | 240 kts | 24° |
| 2026-04-26 05:19 | 44.70376 | -92.92313 | 5847 ft | 237 kts | 350° |
| 2026-04-26 05:19 | 44.71899 | -92.93118 | 5582 ft | 235 kts | 326° |
| 2026-04-26 05:20 | 44.73230 | -92.94457 | 5289 ft | 236 kts | 321° |
| 2026-04-26 05:20 | 44.74526 | -92.95869 | 5012 ft | 234 kts | 321° |
| 2026-04-26 05:20 | 44.75806 | -92.97253 | 4679 ft | 230 kts | 322° |
| 2026-04-26 05:20 | 44.77062 | -92.98597 | 4356 ft | 222 kts | 322° |
| 2026-04-26 05:21 | 44.78241 | -92.99864 | 4090 ft | 210 kts | 319° |
| 2026-04-26 05:21 | 44.79138 | -93.01343 | 3999 ft | 189 kts | 306° |
| 2026-04-26 05:21 | 44.79885 | -93.02846 | 3770 ft | 186 kts | 304° |
| 2026-04-26 05:21 | 44.80577 | -93.04386 | 3523 ft | 184 kts | 303° |
| 2026-04-26 05:22 | 44.81236 | -93.05910 | 3273 ft | 181 kts | 302° |
| 2026-04-26 05:22 | 44.81877 | -93.07402 | 3048 ft | 174 kts | 303° |
| 2026-04-26 05:22 | 44.82506 | -93.08864 | 2819 ft | 176 kts | 303° |
| 2026-04-26 05:22 | 44.83143 | -93.10347 | 2572 ft | 177 kts | 304° |
| 2026-04-26 05:23 | 44.83766 | -93.11797 | 2363 ft | 165 kts | 304° |
| 2026-04-26 05:23 | 44.84341 | -93.13134 | 2101 ft | 153 kts | 305° |
| 2026-04-26 05:23 | 44.84875 | -93.14370 | 1895 ft | 148 kts | 305° |
| 2026-04-26 05:23 | 44.85418 | -93.15626 | 1688 ft | 149 kts | 304° |
| 2026-04-26 05:24 | 44.85953 | -93.16884 | 1440 ft | 150 kts | 304° |
| 2026-04-26 05:24 | 44.86486 | -93.18116 | 1196 ft | 148 kts | 304° |
| 2026-04-26 05:24 | 44.87020 | -93.19339 | 990 ft | 145 kts | 303° |
| 2026-04-26 05:24 | 44.87534 | -93.20543 | 828 ft | 139 kts | 304° |
| 2026-04-26 05:25 | 44.87952 | -93.21512 | 820 ft | 85 kts | 301° |
| 2026-04-26 05:25 | 44.88143 | -93.21944 | 823 ft | 19 kts | 302° |
| 2026-04-26 05:25 | 44.88253 | -93.21986 | 824 ft | 18 kts | 29° |
| 2026-04-26 05:25 | 44.88354 | -93.21882 | 822 ft | 18 kts | 42° |
| 2026-04-26 05:26 | 44.88441 | -93.21762 | 821 ft | 17 kts | 46° |
| 2026-04-26 05:26 | 44.88519 | -93.21645 | 825 ft | 14 kts | 58° |
| 2026-04-26 05:26 | 44.88504 | -93.21522 | 824 ft | 11 kts | 131° |
| 2026-04-26 05:26 | 44.88461 | -93.21532 | 824 ft | 6 kts | 231° |
| 2026-04-26 05:27 | 44.88429 | -93.21557 | 824 ft | 4 kts | 200° |
| 2026-04-26 05:27 | 44.88420 | -93.21562 | 824 ft | 1 kts | 199° |
| 2026-04-26 05:27 | 44.88419 | -93.21562 | 824 ft | 0 kts | 199° |